Time;durP1;ratioP1;P1;durP2;ratioP2;P2;SDS_P1;SDS_P2;PMS_P1;PMS_P2;Temp;Humidity;BMP_temperature;BMP_pressure;BME280_temperature;BME280_humidity;BME280_pressure;Samples;Min_cycle;Max_cycle;Signal;HPM_P1;HPM_P2
2022/12/02 00:02:20;;;;;;;;;;;3.60;86.70;;;-151.14;100.00;62537.16;5092150;28;20112;-81
2022/12/02 00:04:51;;;;;;;;;;;3.60;86.70;;;2.32;100.00;62537.16;5090409;28;19927;-81
2022/12/02 00:07:20;;;;;;;;;;;3.60;86.80;;;2.32;100.00;62537.16;5074051;28;19920;-81
2022/12/02 00:09:47;;;;;;;;;;;3.60;86.80;;;-151.14;100.00;62537.16;5074040;28;19920;-81
2022/12/02 00:12:19;;;;;;;;;;;3.60;86.80;;;2.31;100.00;62537.16;5090624;28;19927;-81
2022/12/02 00:14:54;;;;;;;;;;;3.70;86.90;;;2.32;100.00;62537.16;5090145;28;20199;-81
2022/12/02 00:17:23;;;;;;;;;;;3.60;86.80;;;-151.14;100.00;62537.16;5090733;28;19920;-81
2022/12/02 00:19:51;;;;;;;;;;;3.60;86.80;;;2.32;100.00;62537.16;5091827;28;20205;-81
2022/12/02 00:22:19;;;;;;;;;;;3.60;86.80;;;-151.14;100.00;62537.16;5090953;28;19928;-81
2022/12/02 00:24:47;;;;;;;;;;;3.60;86.90;;;-151.14;100.00;62537.16;5090397;28;19921;-81
2022/12/02 00:27:15;;;;;;;;;;;3.60;86.90;;;-151.14;100.00;62537.16;5089482;28;19920;-81
2022/12/02 00:29:43;;;;;;;;;;;3.60;86.80;;;-151.14;100.00;62537.16;5073142;28;19926;-81
2022/12/02 00:32:11;;;;;;;;;;;3.60;86.80;;;-151.14;100.00;62537.16;5090660;28;20227;-81
2022/12/02 00:34:40;;;;;;;;;;;3.60;86.80;;;-151.14;100.00;62537.16;5091655;28;19920;-81
2022/12/02 00:37:08;;;;;;;;;;;3.60;86.80;;;-151.14;100.00;62537.16;5073925;28;19934;-81
2022/12/02 00:39:36;;;;;;;;;;;3.60;86.90;;;-151.14;100.00;62537.16;5073723;28;19920;-81
2022/12/02 00:42:04;;;;;;;;;;;3.60;87.00;;;-151.14;100.00;62537.16;5090581;28;20242;-81
2022/12/02 00:47:17;;;;;;;;;;;3.60;87.00;;;-151.14;100.00;62537.16;5090105;28;19920;-80
2022/12/02 00:49:46;;;;;;;;;;;3.60;86.80;;;-151.14;100.00;62537.16;5073488;28;19928;-81
2022/12/02 00:52:14;;;;;;;;;;;3.60;86.80;;;-151.14;100.00;62537.16;5091217;28;19920;-81
2022/12/02 00:54:42;;;;;;;;;;;3.60;86.90;;;-151.14;100.00;62537.16;5072951;28;19927;-81
2022/12/02 00:57:10;;;;;;;;;;;3.60;86.90;;;-151.14;100.00;62537.16;5073415;28;19920;-81
2022/12/02 00:59:38;;;;;;;;;;;3.60;86.90;;;-151.14;100.00;62537.16;5073671;28;19920;-81
2022/12/02 01:02:06;;;;;;;;;;;3.60;86.90;;;-151.14;100.00;62537.16;5073489;28;20120;-81
2022/12/02 01:04:34;;;;;;;;;;;3.60;86.80;;;-151.14;100.00;62537.16;5089990;28;19926;-81
2022/12/02 01:07:04;;;;;;;;;;;3.60;86.80;;;-151.14;100.00;62537.16;5072920;28;20123;-81
2022/12/02 01:09:32;;;;;;;;;;;3.60;86.80;;;-151.14;100.00;62537.16;5090259;28;19926;-80
2022/12/02 01:11:59;;;;;;;;;;;3.60;86.80;;;2.30;100.00;62537.16;5090045;28;19939;-81
2022/12/02 01:14:27;;;;;;;;;;;3.60;86.90;;;-151.14;100.00;62537.16;5072946;28;19920;-81
2022/12/02 01:16:55;;;;;;;;;;;3.60;86.90;;;-151.14;100.00;62537.16;5089867;28;19920;-81
2022/12/02 01:19:24;;;;;;;;;;;3.60;86.90;;;-151.14;100.00;62537.16;5072917;28;19920;-81
2022/12/02 01:21:52;;;;;;;;;;;3.60;86.80;;;-151.14;100.00;62537.16;5107046;28;19920;-81
2022/12/02 01:24:21;;;;;;;;;;;3.60;86.90;;;-151.14;100.00;62537.16;5089751;28;19982;-81
2022/12/02 01:26:49;;;;;;;;;;;3.60;86.90;;;-151.14;100.00;62537.16;5090710;28;19920;-81
2022/12/02 01:29:17;;;;;;;;;;;3.60;87.00;;;-151.14;100.00;62537.16;5089899;28;19920;-81
2022/12/02 01:31:45;;;;;;;;;;;3.60;86.90;;;-151.14;100.00;62537.16;5090891;28;19924;-81
2022/12/02 01:34:13;;;;;;;;;;;3.60;87.00;;;-151.14;100.00;62537.16;5089468;28;19920;-81
2022/12/02 01:36:41;;;;;;;;;;;3.60;86.90;;;-151.14;100.00;62537.16;5089595;28;19920;-81
2022/12/02 01:39:09;;;;;;;;;;;3.60;87.00;;;-151.14;100.00;62537.16;5090805;28;19920;-81
2022/12/02 01:41:38;;;;;;;;;;;3.60;87.00;;;-151.14;100.00;62537.16;5093238;28;19927;-81
2022/12/02 01:44:08;;;;;;;;;;;3.60;87.00;;;-151.14;100.00;62537.16;5092915;28;20220;-81
2022/12/02 01:46:37;;;;;;;;;;;3.60;86.90;;;18.10;100.00;62537.16;5092801;28;19927;-81
2022/12/02 01:49:05;;;;;;;;;;;3.60;87.00;;;-151.14;100.00;62537.16;5076423;28;19932;-81
2022/12/02 01:51:32;;;;;;;;;;;3.60;87.00;;;-151.14;100.00;62537.16;5092848;28;19927;-81
2022/12/02 01:54:00;;;;;;;;;;;3.60;87.00;;;-151.14;100.00;62537.16;5097058;28;20217;-81
2022/12/02 01:56:28;;;;;;;;;;;3.60;86.80;;;-151.14;100.00;62537.16;5092902;28;19920;-81
2022/12/02 01:58:58;;;;;;;;;;;3.60;87.00;;;-151.14;100.00;62537.16;5093101;28;19930;-81
2022/12/02 02:01:26;;;;;;;;;;;3.60;87.00;;;-151.14;100.00;62537.16;5094037;28;19926;-81
2022/12/02 02:03:54;;;;;;;;;;;3.60;87.00;;;-151.14;100.00;62537.16;5075790;28;19920;-81
2022/12/02 02:06:22;;;;;;;;;;;3.60;87.00;;;18.09;100.00;62537.16;5093453;28;20102;-81
2022/12/02 02:08:50;;;;;;;;;;;3.60;86.90;;;-151.14;100.00;62537.16;5093873;28;19920;-81
2022/12/02 02:11:18;;;;;;;;;;;3.60;86.90;;;-151.14;100.00;62537.16;5092880;28;19927;-81
2022/12/02 02:13:46;;;;;;;;;;;3.60;87.00;;;-151.14;100.00;62537.16;5092703;28;19920;-81
2022/12/02 02:16:16;;;;;;;;;;;3.60;86.90;;;-151.14;100.00;62537.16;5109551;28;19920;-81
2022/12/02 02:18:44;;;;;;;;;;;3.60;86.90;;;18.09;100.00;62537.16;5093554;28;19921;-81
2022/12/02 02:21:15;;;;;;;;;;;3.60;87.00;;;-151.14;100.00;62537.16;5075572;28;19920;-81
2022/12/02 02:23:45;;;;;;;;;;;3.60;87.00;;;-151.14;100.00;62537.16;5071889;28;19927;-81
2022/12/02 02:26:13;;;;;;;;;;;3.60;87.00;;;-151.14;100.00;62537.16;5072252;28;19928;-80
2022/12/02 02:28:41;;;;;;;;;;;3.60;87.70;;;-151.14;100.00;62537.16;5089303;28;20213;-80
2022/12/02 02:31:09;;;;;;;;;;;3.60;86.90;;;-151.14;100.00;62537.16;5088968;28;19950;-81
2022/12/02 02:33:41;;;;;;;;;;;3.60;87.00;;;-151.14;100.00;62537.16;5063091;28;19926;-81
2022/12/02 02:36:09;;;;;;;;;;;3.60;87.00;;;2.32;100.00;62537.16;5092488;28;19936;-81
2022/12/02 02:38:38;;;;;;;;;;;3.60;87.00;;;-151.14;100.00;62537.16;5075663;28;19927;-81
2022/12/02 02:41:08;;;;;;;;;;;3.60;87.00;;;-151.14;100.00;62537.16;5076088;28;20211;-81
2022/12/02 02:43:36;;;;;;;;;;;3.60;86.90;;;-151.14;100.00;62537.16;5091976;28;20230;-81
2022/12/02 02:46:04;;;;;;;;;;;3.60;87.00;;;-151.14;100.00;62537.16;5075259;28;19942;-81
2022/12/02 02:48:37;;;;;;;;;;;3.60;86.90;;;-151.14;100.00;62537.16;5092389;28;19926;-81
2022/12/02 02:51:05;;;;;;;;;;;3.60;86.90;;;-151.14;100.00;62537.16;5074252;28;19920;-81
2022/12/02 02:53:35;;;;;;;;;;;3.60;86.90;;;-151.14;100.00;62537.16;5091766;28;19927;-81
2022/12/02 02:56:05;;;;;;;;;;;3.60;87.00;;;-151.14;100.00;62537.16;5091905;28;19926;-81
2022/12/02 02:58:36;;;;;;;;;;;3.60;86.80;;;-151.14;100.00;62537.16;5075298;28;19926;-81
2022/12/02 03:01:07;;;;;;;;;;;3.60;86.90;;;-151.14;100.00;62537.16;5092154;28;19927;-81
2022/12/02 03:03:37;;;;;;;;;;;3.60;86.80;;;-151.14;100.00;62537.16;5074359;28;19926;-81
2022/12/02 03:06:06;;;;;;;;;;;3.60;86.80;;;-151.14;100.00;62537.16;5073874;28;19924;-81
2022/12/02 03:08:34;;;;;;;;;;;3.60;86.90;;;-151.14;100.00;62537.16;5091956;28;19933;-81
2022/12/02 03:11:02;;;;;;;;;;;3.60;86.90;;;-151.14;100.00;62537.16;5092946;28;19920;-81
2022/12/02 03:13:30;;;;;;;;;;;3.60;86.90;;;-151.14;100.00;62537.16;5091455;28;19920;-81
2022/12/02 03:15:59;;;;;;;;;;;3.60;87.00;;;-151.14;100.00;62537.16;5091476;28;19920;-81
2022/12/02 03:18:27;;;;;;;;;;;3.60;87.00;;;-151.14;100.00;62537.16;5091694;28;19920;-81
2022/12/02 03:20:55;;;;;;;;;;;3.60;87.00;;;-151.14;100.00;62537.16;5092883;28;20218;-81
2022/12/02 03:23:23;;;;;;;;;;;3.60;86.90;;;-151.14;100.00;62537.16;5091595;28;19920;-81
2022/12/02 03:25:51;;;;;;;;;;;3.60;87.00;;;-151.14;100.00;62537.16;5091265;28;19927;-80
2022/12/02 03:28:19;;;;;;;;;;;3.60;86.90;;;18.10;100.00;62537.16;5074936;28;19926;-81
2022/12/02 03:30:47;;;;;;;;;;;3.60;87.00;;;-151.14;100.00;62537.16;5091336;28;19920;-81
2022/12/02 03:33:16;;;;;;;;;;;3.60;86.90;;;-151.14;100.00;62537.16;5091188;28;19928;-81
2022/12/02 03:35:44;;;;;;;;;;;3.60;86.90;;;-151.14;100.00;62537.16;5090958;28;19920;-81
2022/12/02 03:38:12;;;;;;;;;;;3.60;86.90;;;-151.14;100.00;62537.16;5091522;28;19927;-81
2022/12/02 03:40:40;;;;;;;;;;;3.60;86.80;;;18.10;100.00;62537.16;5091744;28;20235;-81
2022/12/02 03:43:08;;;;;;;;;;;3.60;86.90;;;-151.14;100.00;62537.16;5092383;28;19931;-81
2022/12/02 03:45:36;;;;;;;;;;;3.60;86.80;;;-151.14;100.00;62537.16;5074149;28;19920;-81
2022/12/02 03:48:04;;;;;;;;;;;3.60;86.90;;;-151.14;100.00;62537.16;5091260;28;19926;-80
2022/12/02 03:50:33;;;;;;;;;;;3.60;86.90;;;-151.14;100.00;62537.16;5074490;28;20123;-81
2022/12/02 03:53:01;;;;;;;;;;;3.60;86.90;;;;;;5092497;28;19924;-81
2022/12/02 03:55:29;;;;;;;;;;;3.60;87.00;;;-151.14;100.00;62537.16;5091750;28;19920;-81
2022/12/02 03:58:03;;;;;;;;;;;3.60;86.80;;;-151.14;100.00;62537.16;5092010;28;19926;-81
2022/12/02 04:00:31;;;;;;;;;;;3.60;86.80;;;-151.14;100.00;62537.16;5091234;28;19920;-81
2022/12/02 04:02:59;;;;;;;;;;;3.60;86.70;;;-151.14;100.00;62537.16;5090787;28;19920;-81
2022/12/02 04:05:27;;;;;;;;;;;3.60;86.90;;;-151.14;100.00;62537.16;5090656;28;20120;-81
2022/12/02 04:07:56;;;;;;;;;;;3.60;86.80;;;-151.14;100.00;62537.16;5092104;28;20112;-81
2022/12/02 04:10:24;;;;;;;;;;;3.60;86.90;;;-151.14;100.00;62537.16;5091156;28;19939;-80
2022/12/02 04:12:52;;;;;;;;;;;3.60;87.00;;;-151.14;100.00;62537.16;5090900;28;20128;-81
2022/12/02 04:15:20;;;;;;;;;;;3.60;86.90;;;-151.14;100.00;62537.16;5090191;28;19920;-80
2022/12/02 04:17:48;;;;;;;;;;;3.60;86.90;;;-151.14;100.00;62537.16;5090764;28;19928;-81
2022/12/02 04:20:16;;;;;;;;;;;3.60;86.90;;;-151.14;100.00;62537.16;5090637;28;19920;-81
2022/12/02 04:22:44;;;;;;;;;;;3.60;87.00;;;-151.14;100.00;62537.16;5092002;28;19920;-81
2022/12/02 04:25:13;;;;;;;;;;;3.60;87.00;;;-151.14;100.00;62537.16;5090565;28;19920;-81
2022/12/02 04:27:41;;;;;;;;;;;3.60;87.00;;;-151.14;100.00;62537.16;5090669;28;19920;-80
2022/12/02 04:30:09;;;;;;;;;;;3.60;86.90;;;-151.14;100.00;62537.16;5090607;28;19920;-80
2022/12/02 04:32:37;;;;;;;;;;;3.60;87.00;;;-151.14;100.00;62537.16;5091616;28;19920;-81
2022/12/02 04:35:06;;;;;;;;;;;3.60;87.10;;;-151.14;100.00;62537.16;5106992;28;19920;-80
2022/12/02 04:37:33;;;;;;;;;;;3.60;87.00;;;-151.14;100.00;62537.16;5090455;28;19921;-81
2022/12/02 04:40:01;;;;;;;;;;;3.60;87.00;;;-151.14;100.00;62537.16;5073937;28;20151;-81
2022/12/02 04:42:31;;;;;;;;;;;3.60;86.90;;;-151.14;100.00;62537.16;5091748;28;19942;-81
2022/12/02 04:44:59;;;;;;;;;;;3.60;87.00;;;-151.14;100.00;62537.16;5072955;28;20212;-80
2022/12/02 04:47:27;;;;;;;;;;;3.60;86.90;;;-151.14;100.00;62537.16;5090563;28;19927;-81
2022/12/02 04:49:55;;;;;;;;;;;3.60;86.90;;;-151.14;100.00;62537.16;5091220;28;19926;-81
2022/12/02 04:52:22;;;;;;;;;;;3.60;87.00;;;2.31;100.00;62537.16;5107532;28;19920;-81
2022/12/02 04:54:50;;;;;;;;;;;3.60;87.00;;;-151.14;100.00;62537.16;5106381;28;19926;-81
2022/12/02 04:57:18;;;;;;;;;;;3.60;87.10;;;-151.14;100.00;62537.16;5090399;28;19920;-81
2022/12/02 04:59:48;;;;;;;;;;;3.60;87.00;;;-151.14;100.00;62537.16;5090171;28;20122;-81
2022/12/02 05:02:16;;;;;;;;;;;3.60;87.00;;;-151.14;100.00;62537.16;5091317;28;19920;-81
2022/12/02 05:04:44;;;;;;;;;;;3.60;87.00;;;-151.14;100.00;62537.16;5090533;28;19920;-81
2022/12/02 05:07:12;;;;;;;;;;;3.60;87.00;;;-151.14;100.00;62537.16;5090147;28;19921;-81
2022/12/02 05:09:39;;;;;;;;;;;3.60;87.00;;;-151.14;100.00;62537.16;5090114;28;19927;-80
2022/12/02 05:12:07;;;;;;;;;;;3.60;87.10;;;-151.14;100.00;62537.16;5073513;28;19927;-81
2022/12/02 05:14:35;;;;;;;;;;;3.60;87.00;;;-151.14;100.00;62537.16;5091398;28;20212;-81
2022/12/02 05:17:05;;;;;;;;;;;3.60;87.00;;;-151.14;100.00;62537.16;5093356;28;19920;-81
2022/12/02 05:19:33;;;;;;;;;;;3.60;87.00;;;-151.14;100.00;62537.16;5094675;28;19920;-81
2022/12/02 05:22:00;;;;;;;;;;;3.60;87.00;;;2.29;100.00;62537.16;5093740;28;19926;-81
2022/12/02 05:24:28;;;;;;;;;;;3.60;87.10;;;-151.14;100.00;62537.16;5093285;28;19920;-81
2022/12/02 05:26:56;;;;;;;;;;;3.60;87.10;;;-151.14;100.00;62537.16;5094240;28;19920;-81
2022/12/02 05:29:25;;;;;;;;;;;3.60;87.00;;;-151.14;100.00;62537.16;5093564;28;19927;-80
2022/12/02 05:31:53;;;;;;;;;;;3.60;86.90;;;18.08;100.00;62537.16;5093473;28;19920;-80
2022/12/02 05:34:22;;;;;;;;;;;3.60;87.00;;;-151.14;100.00;62537.16;5094235;28;19920;-81
2022/12/02 05:36:50;;;;;;;;;;;3.60;87.00;;;-151.14;100.00;62537.16;5093097;28;19928;-81
2022/12/02 05:39:18;;;;;;;;;;;3.60;87.10;;;-151.14;100.00;62537.16;5076369;28;19920;-81
2022/12/02 05:41:46;;;;;;;;;;;3.60;87.10;;;-151.14;100.00;62537.16;5110481;28;19924;-81
2022/12/02 05:44:19;;;;;;;;;;;3.60;87.10;;;-151.14;100.00;62537.16;5076122;28;19920;-81
2022/12/02 05:46:47;;;;;;;;;;;3.60;87.10;;;-151.14;100.00;62537.16;5093160;28;19920;-81
2022/12/02 05:49:16;;;;;;;;;;;3.60;87.10;;;-151.14;100.00;62537.16;5110050;28;19928;-80
2022/12/02 05:51:46;;;;;;;;;;;3.60;87.10;;;-151.14;100.00;62537.16;5110229;28;19920;-80
2022/12/02 05:54:18;;;;;;;;;;;3.60;87.00;;;-151.14;100.00;62537.16;5093797;28;19920;-81
2022/12/02 05:56:46;;;;;;;;;;;3.60;87.00;;;-151.14;100.00;62537.16;5092785;28;20112;-81
2022/12/02 05:59:15;;;;;;;;;;;3.60;87.00;;;-151.14;100.00;62537.16;5092895;28;19926;-81
2022/12/02 06:01:43;;;;;;;;;;;3.60;87.00;;;-151.14;100.00;62537.16;5092885;28;19920;-81
2022/12/02 06:04:12;;;;;;;;;;;3.60;87.00;;;-151.14;100.00;62537.16;5092676;28;19921;-80
2022/12/02 06:06:40;;;;;;;;;;;3.60;87.00;;;-151.14;100.00;62537.16;5093693;28;20115;-81
2022/12/02 06:09:14;;;;;;;;;;;3.60;87.00;;;-151.14;100.00;62537.16;5092800;28;19926;-80
2022/12/02 06:11:42;;;;;;;;;;;3.60;87.00;;;18.10;100.00;62537.16;5092840;28;19920;-81
2022/12/02 06:14:13;;;;;;;;;;;3.60;87.00;;;-151.14;100.00;62537.16;5092702;28;20213;-81
2022/12/02 06:16:41;;;;;;;;;;;3.60;87.10;;;-151.14;100.00;62537.16;5075545;28;19920;-81
2022/12/02 06:19:18;;;;;;;;;;;3.60;87.10;;;-151.14;100.00;62537.16;5075781;28;19934;-80
2022/12/02 06:21:46;;;;;;;;;;;3.60;87.00;;;-151.14;100.00;62537.16;5092784;28;19926;-81
2022/12/02 06:24:16;;;;;;;;;;;3.60;87.10;;;-151.14;100.00;62537.16;5092424;28;19926;-81
2022/12/02 06:26:44;;;;;;;;;;;3.60;87.00;;;-151.14;100.00;62537.16;5092298;28;19920;-81
2022/12/02 06:29:12;;;;;;;;;;;3.60;87.00;;;-151.14;100.00;62537.16;5092503;28;19920;-81
2022/12/02 06:31:41;;;;;;;;;;;3.60;87.10;;;-151.14;100.00;62537.16;5092453;28;19920;-81
2022/12/02 06:34:21;;;;;;;;;;;3.60;87.00;;;2.29;100.00;62537.16;5072226;28;19920;-81
2022/12/02 06:36:48;;;;;;;;;;;3.60;87.00;;;-151.14;100.00;62537.16;5055424;28;19921;-81
2022/12/02 06:39:20;;;;;;;;;;;3.60;87.00;;;2.29;100.00;62537.16;5055598;28;19934;-81
2022/12/02 06:41:48;;;;;;;;;;;3.60;87.10;;;-151.14;100.00;62537.16;5055572;28;20216;-81
2022/12/02 06:47:47;;;;;;;;;;;3.60;87.00;;;2.29;100.00;62537.16;5089683;28;19920;-80
2022/12/02 06:50:27;;;;;;;;;;;3.60;87.00;;;-151.14;100.00;62537.16;5092343;28;20123;-81
2022/12/02 06:52:58;;;;;;;;;;;3.60;87.00;;;2.32;100.00;62537.16;5091928;28;19920;-81
2022/12/02 06:55:32;;;;;;;;;;;3.60;87.00;;;-151.14;100.00;62537.16;5092860;28;19978;-81
2022/12/02 06:58:12;;;;;;;;;;;3.60;87.00;;;-151.14;100.00;62537.16;5075257;28;19924;-81
2022/12/02 07:00:39;;;;;;;;;;;3.60;87.10;;;-151.14;100.00;62537.16;5092191;28;19920;-81
2022/12/02 07:03:11;;;;;;;;;;;3.60;87.00;;;-151.14;100.00;62537.16;5092995;28;19920;-81
2022/12/02 07:05:38;;;;;;;;;;;3.60;87.10;;;-151.14;100.00;62537.16;5091523;28;19920;-80
2022/12/02 07:08:07;;;;;;;;;;;3.60;87.00;;;-151.14;100.00;62537.16;5075077;28;19921;-80
2022/12/02 07:10:37;;;;;;;;;;;3.60;87.10;;;-151.14;100.00;62537.16;5075324;28;19934;-81
2022/12/02 07:13:06;;;;;;;;;;;3.60;87.10;;;-151.14;100.00;62537.16;5092843;28;19930;-80
2022/12/02 07:15:35;;;;;;;;;;;3.60;86.90;;;-151.14;100.00;62537.16;5074636;28;20101;-81
2022/12/02 07:18:11;;;;;;;;;;;3.60;87.00;;;-151.14;100.00;62537.16;5091603;28;19926;-81
2022/12/02 07:20:39;;;;;;;;;;;3.60;87.10;;;-151.14;100.00;62537.16;5091741;28;19927;-81
2022/12/02 07:23:14;;;;;;;;;;;3.60;87.00;;;-151.14;100.00;62537.16;5108566;28;19927;-80
2022/12/02 07:25:44;;;;;;;;;;;3.60;87.10;;;-151.14;100.00;62537.16;5091585;28;20113;-81
2022/12/02 07:28:28;;;;;;;;;;;3.60;87.00;;;18.09;100.00;62537.16;5091601;28;19920;-81
2022/12/02 07:31:01;;;;;;;;;;;3.60;87.10;;;2.33;100.00;62537.16;5091467;28;20108;-81
2022/12/02 07:33:29;;;;;;;;;;;3.60;87.00;;;-151.14;100.00;62537.16;5091591;28;19920;-81
2022/12/02 07:35:57;;;;;;;;;;;3.60;87.10;;;-151.14;100.00;62537.16;5108152;28;20161;-81
2022/12/02 07:38:25;;;;;;;;;;;3.60;87.10;;;-151.14;100.00;62537.16;5107872;28;19920;-81
2022/12/02 07:40:54;;;;;;;;;;;3.60;87.00;;;-151.14;100.00;62537.16;5092720;28;19920;-81
2022/12/02 07:43:23;;;;;;;;;;;3.60;87.10;;;-151.14;100.00;62537.16;5090262;28;19926;-81
2022/12/02 07:45:51;;;;;;;;;;;3.60;87.70;;;-151.14;100.00;62537.16;5074491;28;20093;-81
2022/12/02 07:48:19;;;;;;;;;;;3.70;87.00;;;-151.14;100.00;62537.16;5074551;28;19933;-80
2022/12/02 07:50:46;;;;;;;;;;;3.70;87.10;;;-151.14;100.00;62537.16;5074499;28;19924;-81
2022/12/02 07:53:14;;;;;;;;;;;3.60;87.00;;;-151.14;100.00;62537.16;5074715;28;19926;-81
2022/12/02 07:55:42;;;;;;;;;;;3.70;86.90;;;-151.14;100.00;62537.16;5074173;28;20238;-81
2022/12/02 07:58:12;;;;;;;;;;;3.60;86.90;;;-151.14;100.00;62537.16;5091061;28;20310;-81
2022/12/02 08:00:39;;;;;;;;;;;3.70;86.90;;;18.09;100.00;62537.16;5091137;28;19920;-81
2022/12/02 08:03:07;;;;;;;;;;;3.60;86.90;;;-151.14;100.00;62537.16;5091178;28;20216;-80
2022/12/02 08:05:35;;;;;;;;;;;3.70;87.00;;;-151.14;100.00;62537.16;5090675;28;20220;-81
2022/12/02 08:08:03;;;;;;;;;;;3.70;86.90;;;-151.14;100.00;62537.16;5091134;28;20354;-81
2022/12/02 08:10:31;;;;;;;;;;;3.70;87.00;;;-151.14;100.00;62537.16;5091123;28;19920;-81
2022/12/02 08:12:59;;;;;;;;;;;3.70;87.00;;;-151.14;100.00;62537.16;5107743;28;19920;-81
2022/12/02 08:15:28;;;;;;;;;;;3.70;87.00;;;18.10;100.00;62537.16;5090340;28;19928;-81
2022/12/02 08:17:56;;;;;;;;;;;3.70;87.00;;;-151.14;100.00;62537.16;5073945;28;19927;-80
2022/12/02 08:20:25;;;;;;;;;;;3.70;87.10;;;-151.14;100.00;62537.16;5087308;28;19926;-81
2022/12/02 08:22:53;;;;;;;;;;;3.70;87.10;;;-151.14;100.00;62537.16;5071857;28;20217;-81
2022/12/02 08:25:21;;;;;;;;;;;3.70;87.00;;;-151.14;100.00;62537.16;5085986;28;19920;-80
2022/12/02 08:27:49;;;;;;;;;;;3.60;87.00;;;-151.14;100.00;62537.16;5090460;28;19920;-81
2022/12/02 08:30:17;;;;;;;;;;;3.70;87.00;;;-151.14;100.00;62537.16;5090843;28;19920;-81
2022/12/02 08:32:46;;;;;;;;;;;3.70;87.00;;;-151.14;100.00;62537.16;5107609;28;19924;-81
2022/12/02 08:35:15;;;;;;;;;;;3.70;87.10;;;-151.14;100.00;62537.16;5090527;28;19927;-81
2022/12/02 08:37:43;;;;;;;;;;;3.70;86.90;;;-151.14;100.00;62537.16;5090538;28;19920;-81
2022/12/02 08:40:11;;;;;;;;;;;3.70;87.10;;;2.34;100.00;62537.16;5090687;28;19927;-81
2022/12/02 08:42:41;;;;;;;;;;;3.70;87.00;;;-151.14;100.00;62537.16;5073717;28;19920;-81
2022/12/02 08:45:09;;;;;;;;;;;3.70;86.90;;;18.10;100.00;62537.16;5090033;28;19920;-81
2022/12/02 08:47:37;;;;;;;;;;;3.70;87.00;;;-151.14;100.00;62537.16;5073681;28;19920;-81
2022/12/02 08:50:07;;;;;;;;;;;3.70;86.90;;;-151.14;100.00;62537.16;5089542;28;19927;-81
2022/12/02 08:52:35;;;;;;;;;;;3.70;86.90;;;-151.14;100.00;62537.16;5090821;28;19942;-81
2022/12/02 08:55:03;;;;;;;;;;;3.70;86.80;;;-151.14;100.00;62537.16;5090795;28;20120;-81
2022/12/02 08:57:31;;;;;;;;;;;3.70;86.90;;;-151.14;100.00;62537.16;5091418;28;19927;-81
2022/12/02 08:59:59;;;;;;;;;;;3.70;86.90;;;-151.14;100.00;62537.16;5089972;28;19928;-80
2022/12/02 09:02:27;;;;;;;;;;;3.70;87.00;;;-151.14;100.00;62537.16;5107397;28;19928;-81
2022/12/02 09:04:55;;;;;;;;;;;3.70;86.90;;;-151.14;100.00;62537.16;5090800;28;20113;-81
2022/12/02 09:07:24;;;;;;;;;;;3.70;86.90;;;-151.14;100.00;62537.16;5090323;28;19920;-80
2022/12/02 09:09:53;;;;;;;;;;;3.70;86.90;;;-151.14;100.00;62537.16;5090065;28;20202;-81
2022/12/02 09:12:21;;;;;;;;;;;3.70;86.90;;;-151.14;100.00;62537.16;5090364;28;19920;-81
2022/12/02 09:14:49;;;;;;;;;;;3.70;86.90;;;2.35;100.00;62537.16;5106453;28;19920;-81
2022/12/02 09:17:17;;;;;;;;;;;3.70;86.90;;;-151.14;100.00;62537.16;5073687;28;19943;-81
2022/12/02 09:19:45;;;;;;;;;;;3.70;87.20;;;-151.14;100.00;62537.16;5073214;28;19920;-81
2022/12/02 09:22:13;;;;;;;;;;;3.70;86.90;;;-151.14;100.00;62537.16;5091312;28;20212;-80
2022/12/02 09:24:42;;;;;;;;;;;3.70;86.90;;;-151.14;100.00;62537.16;5106295;28;19920;-81
2022/12/02 09:27:10;;;;;;;;;;;3.70;86.90;;;-151.14;100.00;62537.16;5106865;28;19920;-81
2022/12/02 09:29:38;;;;;;;;;;;3.70;86.90;;;-151.14;100.00;62537.16;5089742;28;20242;-81
2022/12/02 09:32:05;;;;;;;;;;;3.70;87.00;;;-151.14;100.00;62537.16;5069757;28;19927;-81
2022/12/02 09:34:33;;;;;;;;;;;3.70;86.90;;;-151.14;100.00;62537.16;5069409;28;19955;-81
2022/12/02 09:37:01;;;;;;;;;;;3.70;86.90;;;-151.14;100.00;62537.16;5069508;28;19920;-81
2022/12/02 09:39:29;;;;;;;;;;;3.70;86.90;;;-151.14;100.00;62537.16;5070404;28;19920;-81
2022/12/02 09:41:58;;;;;;;;;;;3.70;86.90;;;-151.14;100.00;62537.16;5070881;28;19927;-81
2022/12/02 09:44:26;;;;;;;;;;;3.70;86.90;;;-151.14;100.00;62537.16;5069500;28;19926;-81
2022/12/02 09:46:54;;;;;;;;;;;3.70;86.90;;;-151.14;100.00;62537.16;5069210;28;19927;-81
2022/12/02 09:49:22;;;;;;;;;;;3.70;86.90;;;-151.14;100.00;62537.16;5069457;28;19924;-81
2022/12/02 09:51:57;;;;;;;;;;;3.70;86.90;;;-151.14;100.00;62537.16;5052728;28;20120;-81
2022/12/02 09:54:25;;;;;;;;;;;3.70;86.80;;;-151.14;100.00;62537.16;5069214;28;19921;-81
2022/12/02 09:56:53;;;;;;;;;;;3.70;86.90;;;-151.14;100.00;62537.16;5070216;28;19934;-81
2022/12/02 09:59:23;;;;;;;;;;;3.70;86.90;;;-151.14;100.00;62537.16;5069299;28;19920;-81
2022/12/02 10:01:51;;;;;;;;;;;3.70;86.80;;;-151.14;100.00;62537.16;5073025;28;20147;-80
2022/12/02 10:04:20;;;;;;;;;;;3.70;86.80;;;2.43;100.00;62537.16;5072648;28;19927;-81
2022/12/02 10:06:48;;;;;;;;;;;3.70;86.80;;;-151.14;100.00;62537.16;5089323;28;20119;-81
2022/12/02 10:09:17;;;;;;;;;;;3.70;86.80;;;2.41;100.00;62537.16;5089785;28;19927;-81
2022/12/02 10:11:45;;;;;;;;;;;3.70;86.80;;;-151.14;100.00;62537.16;5056154;28;19927;-81
2022/12/02 10:14:14;;;;;;;;;;;3.70;86.80;;;-151.14;100.00;62537.16;5072605;28;20098;-81
2022/12/02 10:16:43;;;;;;;;;;;3.80;86.80;;;-151.14;100.00;62537.16;5073497;28;19921;-81
2022/12/02 10:19:13;;;;;;;;;;;3.80;86.80;;;-151.14;100.00;62537.16;5072653;28;19927;-80
2022/12/02 10:21:41;;;;;;;;;;;3.80;86.80;;;-151.14;100.00;62537.16;5089421;28;20144;-81
2022/12/02 10:24:10;;;;;;;;;;;3.80;86.80;;;-151.14;100.00;62537.16;5055559;28;19927;-81
2022/12/02 10:26:48;;;;;;;;;;;3.80;86.70;;;2.44;100.00;62537.16;5072377;28;19920;-81
2022/12/02 10:29:18;;;;;;;;;;;3.80;86.80;;;-151.14;100.00;62537.16;5072123;28;19925;-81
2022/12/02 10:31:58;;;;;;;;;;;3.80;86.70;;;2.45;100.00;62537.16;5072217;28;19926;-81
2022/12/02 10:34:26;;;;;;;;;;;3.80;86.60;;;-151.14;100.00;62537.16;5089004;28;19927;-81
2022/12/02 10:36:54;;;;;;;;;;;3.80;86.50;;;2.47;100.00;62537.16;5081541;28;19938;-81
2022/12/02 10:39:25;;;;;;;;;;;3.80;86.40;;;-151.14;100.00;62537.16;5075712;28;19933;-81
2022/12/02 10:42:09;;;;;;;;;;;3.80;86.40;;;2.47;100.00;62537.16;5081234;28;19927;-81
2022/12/02 10:44:38;;;;;;;;;;;3.80;86.30;;;-151.14;100.00;62537.16;5109282;28;19921;-81
2022/12/02 10:47:17;;;;;;;;;;;3.80;86.40;;;-151.14;100.00;62537.16;5085608;28;19920;-81
2022/12/02 10:49:46;;;;;;;;;;;3.80;86.30;;;2.47;100.00;62537.16;5092302;28;19920;-81
2022/12/02 10:52:14;;;;;;;;;;;3.80;86.40;;;-151.14;100.00;62537.16;5109192;28;19928;-81
2022/12/02 10:54:44;;;;;;;;;;;3.80;86.40;;;-151.14;100.00;62537.16;5092710;28;19942;-81
2022/12/02 10:57:16;;;;;;;;;;;3.80;86.30;;;-151.14;100.00;62537.16;5091860;28;19970;-81
2022/12/02 10:59:44;;;;;;;;;;;3.80;86.40;;;-151.14;100.00;62537.16;5091923;28;20363;-81
2022/12/02 11:02:19;;;;;;;;;;;3.80;86.40;;;-151.14;100.00;62537.16;5109218;28;19920;-81
2022/12/02 11:04:47;;;;;;;;;;;3.80;86.40;;;18.10;100.00;62537.16;5091461;28;20216;-81
2022/12/02 11:07:15;;;;;;;;;;;3.80;86.30;;;-151.14;100.00;62537.16;5080095;28;19982;-81
2022/12/02 11:09:45;;;;;;;;;;;3.80;86.40;;;-151.14;100.00;62537.16;5091871;28;19920;-81
2022/12/02 11:12:35;;;;;;;;;;;3.80;86.40;;;-151.14;100.00;62537.16;5091020;28;20234;-81
2022/12/02 11:15:19;;;;;;;;;;;3.80;86.40;;;-151.14;100.00;62537.16;5091404;28;19920;-81
2022/12/02 11:17:50;;;;;;;;;;;3.80;86.40;;;-151.14;100.00;62537.16;5092604;28;19920;-81
2022/12/02 11:20:45;;;;;;;;;;;3.80;86.40;;;-151.14;100.00;62537.16;5091748;28;19920;-81